sensor_id;sensor_type;location;lat;lon;timestamp;P1;durP1;ratioP1;P2;durP2;ratioP2
45784;SDS011;31489;51.404;5.474;2023-06-22T00:02:13;3.25;;;2.42;;
45784;SDS011;31489;51.404;5.474;2023-06-22T00:04:39;6.57;;;2.25;;
45784;SDS011;31489;51.404;5.474;2023-06-22T00:07:04;2.85;;;2.55;;
45784;SDS011;31489;51.404;5.474;2023-06-22T00:09:30;3.80;;;2.60;;
45784;SDS011;31489;51.404;5.474;2023-06-22T00:11:56;4.82;;;2.70;;
45784;SDS011;31489;51.404;5.474;2023-06-22T00:14:22;4.93;;;2.55;;
45784;SDS011;31489;51.404;5.474;2023-06-22T00:16:47;2.83;;;2.50;;
45784;SDS011;31489;51.404;5.474;2023-06-22T00:19:14;3.33;;;2.72;;
45784;SDS011;31489;51.404;5.474;2023-06-22T00:21:40;3.33;;;2.63;;
45784;SDS011;31489;51.404;5.474;2023-06-22T00:24:07;4.18;;;2.70;;
45784;SDS011;31489;51.404;5.474;2023-06-22T00:26:33;2.83;;;2.53;;
45784;SDS011;31489;51.404;5.474;2023-06-22T00:28:59;4.60;;;3.13;;
45784;SDS011;31489;51.404;5.474;2023-06-22T00:31:24;3.50;;;2.95;;
45784;SDS011;31489;51.404;5.474;2023-06-22T00:33:50;4.32;;;2.88;;
45784;SDS011;31489;51.404;5.474;2023-06-22T00:36:16;4.45;;;3.28;;
45784;SDS011;31489;51.404;5.474;2023-06-22T00:38:42;6.70;;;3.65;;
45784;SDS011;31489;51.404;5.474;2023-06-22T00:41:08;4.85;;;3.40;;
45784;SDS011;31489;51.404;5.474;2023-06-22T00:43:34;5.57;;;3.85;;
45784;SDS011;31489;51.404;5.474;2023-06-22T00:45:59;4.10;;;3.38;;
45784;SDS011;31489;51.404;5.474;2023-06-22T00:48:25;4.68;;;4.00;;
45784;SDS011;31489;51.404;5.474;2023-06-22T00:50:51;5.05;;;4.15;;
45784;SDS011;31489;51.404;5.474;2023-06-22T00:53:19;7.00;;;4.00;;
45784;SDS011;31489;51.404;5.474;2023-06-22T00:55:44;5.65;;;4.38;;
45784;SDS011;31489;51.404;5.474;2023-06-22T00:58:12;6.22;;;4.82;;
45784;SDS011;31489;51.404;5.474;2023-06-22T01:00:38;5.35;;;4.78;;
45784;SDS011;31489;51.404;5.474;2023-06-22T01:03:04;5.18;;;4.53;;
45784;SDS011;31489;51.404;5.474;2023-06-22T01:05:34;5.72;;;4.50;;
45784;SDS011;31489;51.404;5.474;2023-06-22T01:13:04;5.32;;;4.82;;
45784;SDS011;31489;51.404;5.474;2023-06-22T01:15:44;6.40;;;4.97;;
45784;SDS011;31489;51.404;5.474;2023-06-22T01:18:14;5.22;;;4.68;;
45784;SDS011;31489;51.404;5.474;2023-06-22T01:20:43;7.57;;;5.50;;
45784;SDS011;31489;51.404;5.474;2023-06-22T01:26:17;5.25;;;4.75;;
45784;SDS011;31489;51.404;5.474;2023-06-22T01:28:50;6.30;;;5.03;;
45784;SDS011;31489;51.404;5.474;2023-06-22T01:31:23;5.60;;;5.10;;
45784;SDS011;31489;51.404;5.474;2023-06-22T01:33:51;6.88;;;5.15;;
45784;SDS011;31489;51.404;5.474;2023-06-22T01:36:19;10.93;;;5.53;;
45784;SDS011;31489;51.404;5.474;2023-06-22T01:38:47;7.28;;;5.38;;
45784;SDS011;31489;51.404;5.474;2023-06-22T01:41:13;6.68;;;5.07;;
45784;SDS011;31489;51.404;5.474;2023-06-22T01:43:39;7.88;;;5.63;;
45784;SDS011;31489;51.404;5.474;2023-06-22T01:46:05;6.15;;;5.47;;
45784;SDS011;31489;51.404;5.474;2023-06-22T01:48:32;7.55;;;5.75;;
45784;SDS011;31489;51.404;5.474;2023-06-22T01:50:58;6.07;;;5.47;;
45784;SDS011;31489;51.404;5.474;2023-06-22T01:53:24;6.03;;;5.05;;
45784;SDS011;31489;51.404;5.474;2023-06-22T01:55:50;7.50;;;5.55;;
45784;SDS011;31489;51.404;5.474;2023-06-22T01:58:16;6.13;;;5.30;;
45784;SDS011;31489;51.404;5.474;2023-06-22T02:00:48;5.82;;;5.20;;
45784;SDS011;31489;51.404;5.474;2023-06-22T02:03:25;6.43;;;5.03;;
45784;SDS011;31489;51.404;5.474;2023-06-22T02:05:56;8.27;;;5.82;;
45784;SDS011;31489;51.404;5.474;2023-06-22T02:08:28;6.55;;;5.78;;
45784;SDS011;31489;51.404;5.474;2023-06-22T02:10:57;7.07;;;5.97;;
45784;SDS011;31489;51.404;5.474;2023-06-22T02:13:24;8.77;;;5.32;;
45784;SDS011;31489;51.404;5.474;2023-06-22T02:15:50;6.75;;;5.53;;
45784;SDS011;31489;51.404;5.474;2023-06-22T02:18:16;7.78;;;6.28;;
45784;SDS011;31489;51.404;5.474;2023-06-22T02:20:42;7.43;;;5.60;;
45784;SDS011;31489;51.404;5.474;2023-06-22T02:23:08;9.75;;;6.15;;
45784;SDS011;31489;51.404;5.474;2023-06-22T02:25:33;6.78;;;6.07;;
45784;SDS011;31489;51.404;5.474;2023-06-22T02:27:59;7.53;;;5.80;;
45784;SDS011;31489;51.404;5.474;2023-06-22T02:30:25;6.32;;;5.65;;
45784;SDS011;31489;51.404;5.474;2023-06-22T02:32:51;6.85;;;6.03;;
45784;SDS011;31489;51.404;5.474;2023-06-22T02:35:23;6.45;;;5.78;;
45784;SDS011;31489;51.404;5.474;2023-06-22T02:38:01;7.43;;;6.28;;
45784;SDS011;31489;51.404;5.474;2023-06-22T02:40:30;6.95;;;5.90;;
45784;SDS011;31489;51.404;5.474;2023-06-22T02:42:57;7.75;;;5.72;;
45784;SDS011;31489;51.404;5.474;2023-06-22T02:45:26;7.60;;;6.22;;
45784;SDS011;31489;51.404;5.474;2023-06-22T02:47:52;8.00;;;6.00;;
45784;SDS011;31489;51.404;5.474;2023-06-22T02:50:17;8.75;;;5.70;;
45784;SDS011;31489;51.404;5.474;2023-06-22T02:52:43;6.45;;;5.55;;
45784;SDS011;31489;51.404;5.474;2023-06-22T02:55:08;6.88;;;6.18;;
45784;SDS011;31489;51.404;5.474;2023-06-22T02:57:34;7.68;;;6.47;;
45784;SDS011;31489;51.404;5.474;2023-06-22T03:00:02;8.10;;;6.03;;
45784;SDS011;31489;51.404;5.474;2023-06-22T03:02:37;9.25;;;5.78;;
45784;SDS011;31489;51.404;5.474;2023-06-22T03:05:03;9.45;;;6.53;;
45784;SDS011;31489;51.404;5.474;2023-06-22T03:07:29;6.50;;;5.68;;
45784;SDS011;31489;51.404;5.474;2023-06-22T03:09:55;7.38;;;6.22;;
45784;SDS011;31489;51.404;5.474;2023-06-22T03:12:20;6.35;;;5.63;;
45784;SDS011;31489;51.404;5.474;2023-06-22T03:14:46;7.85;;;5.45;;
45784;SDS011;31489;51.404;5.474;2023-06-22T03:17:11;7.55;;;5.75;;
45784;SDS011;31489;51.404;5.474;2023-06-22T03:19:37;7.78;;;6.00;;
45784;SDS011;31489;51.404;5.474;2023-06-22T03:22:03;7.47;;;6.40;;
45784;SDS011;31489;51.404;5.474;2023-06-22T03:24:29;7.25;;;6.10;;
45784;SDS011;31489;51.404;5.474;2023-06-22T03:26:54;7.60;;;5.97;;
45784;SDS011;31489;51.404;5.474;2023-06-22T03:29:21;6.68;;;5.75;;
45784;SDS011;31489;51.404;5.474;2023-06-22T03:31:47;6.82;;;5.57;;
45784;SDS011;31489;51.404;5.474;2023-06-22T03:34:13;8.93;;;6.50;;
45784;SDS011;31489;51.404;5.474;2023-06-22T03:36:38;7.28;;;6.30;;
45784;SDS011;31489;51.404;5.474;2023-06-22T03:39:04;7.70;;;6.03;;
45784;SDS011;31489;51.404;5.474;2023-06-22T03:41:29;6.38;;;5.75;;
45784;SDS011;31489;51.404;5.474;2023-06-22T03:43:55;6.85;;;6.10;;
45784;SDS011;31489;51.404;5.474;2023-06-22T03:46:20;9.15;;;6.22;;
45784;SDS011;31489;51.404;5.474;2023-06-22T03:48:46;11.02;;;6.03;;
45784;SDS011;31489;51.404;5.474;2023-06-22T03:51:12;7.72;;;5.40;;
45784;SDS011;31489;51.404;5.474;2023-06-22T03:53:37;8.25;;;6.47;;
45784;SDS011;31489;51.404;5.474;2023-06-22T03:56:03;9.40;;;6.32;;
45784;SDS011;31489;51.404;5.474;2023-06-22T03:58:29;9.30;;;6.18;;
45784;SDS011;31489;51.404;5.474;2023-06-22T04:00:57;6.47;;;5.75;;
45784;SDS011;31489;51.404;5.474;2023-06-22T04:03:25;10.00;;;5.65;;
45784;SDS011;31489;51.404;5.474;2023-06-22T04:05:51;8.73;;;6.35;;
45784;SDS011;31489;51.404;5.474;2023-06-22T04:08:16;6.47;;;5.78;;
45784;SDS011;31489;51.404;5.474;2023-06-22T04:10:43;7.13;;;6.00;;
45784;SDS011;31489;51.404;5.474;2023-06-22T04:13:08;9.23;;;6.80;;
45784;SDS011;31489;51.404;5.474;2023-06-22T04:15:34;7.80;;;6.97;;
45784;SDS011;31489;51.404;5.474;2023-06-22T04:18:00;8.18;;;7.35;;
45784;SDS011;31489;51.404;5.474;2023-06-22T04:20:25;12.32;;;6.97;;
45784;SDS011;31489;51.404;5.474;2023-06-22T04:22:52;9.48;;;8.07;;
45784;SDS011;31489;51.404;5.474;2023-06-22T04:25:18;7.78;;;6.97;;
45784;SDS011;31489;51.404;5.474;2023-06-22T04:27:45;8.52;;;6.93;;
45784;SDS011;31489;51.404;5.474;2023-06-22T04:30:11;8.95;;;7.97;;
45784;SDS011;31489;51.404;5.474;2023-06-22T04:32:37;8.57;;;7.70;;
45784;SDS011;31489;51.404;5.474;2023-06-22T04:35:03;8.43;;;7.50;;
45784;SDS011;31489;51.404;5.474;2023-06-22T04:37:32;12.70;;;8.23;;
45784;SDS011;31489;51.404;5.474;2023-06-22T04:39:58;8.60;;;7.45;;
45784;SDS011;31489;51.404;5.474;2023-06-22T04:42:27;8.73;;;7.60;;
45784;SDS011;31489;51.404;5.474;2023-06-22T04:44:53;10.60;;;8.05;;
45784;SDS011;31489;51.404;5.474;2023-06-22T04:47:19;8.90;;;7.85;;
45784;SDS011;31489;51.404;5.474;2023-06-22T04:49:44;10.00;;;8.90;;
45784;SDS011;31489;51.404;5.474;2023-06-22T04:52:11;10.68;;;8.10;;
45784;SDS011;31489;51.404;5.474;2023-06-22T04:54:38;8.68;;;7.65;;
45784;SDS011;31489;51.404;5.474;2023-06-22T04:57:12;10.43;;;8.38;;
45784;SDS011;31489;51.404;5.474;2023-06-22T04:59:38;13.60;;;10.10;;
45784;SDS011;31489;51.404;5.474;2023-06-22T05:02:06;15.45;;;13.35;;
45784;SDS011;31489;51.404;5.474;2023-06-22T05:04:32;13.00;;;10.02;;
45784;SDS011;31489;51.404;5.474;2023-06-22T05:07:00;10.63;;;8.73;;
45784;SDS011;31489;51.404;5.474;2023-06-22T05:09:27;12.13;;;9.90;;
45784;SDS011;31489;51.404;5.474;2023-06-22T05:11:53;10.30;;;8.90;;
45784;SDS011;31489;51.404;5.474;2023-06-22T05:14:19;12.30;;;9.60;;
45784;SDS011;31489;51.404;5.474;2023-06-22T05:16:45;11.13;;;9.70;;
45784;SDS011;31489;51.404;5.474;2023-06-22T05:19:11;11.13;;;10.00;;
45784;SDS011;31489;51.404;5.474;2023-06-22T05:21:37;11.40;;;9.38;;
45784;SDS011;31489;51.404;5.474;2023-06-22T05:24:03;12.98;;;10.48;;
45784;SDS011;31489;51.404;5.474;2023-06-22T05:26:29;11.45;;;9.85;;
45784;SDS011;31489;51.404;5.474;2023-06-22T05:28:56;12.60;;;9.20;;
45784;SDS011;31489;51.404;5.474;2023-06-22T05:31:23;11.25;;;9.65;;
45784;SDS011;31489;51.404;5.474;2023-06-22T05:33:50;11.23;;;9.82;;
45784;SDS011;31489;51.404;5.474;2023-06-22T05:36:17;13.00;;;11.05;;
45784;SDS011;31489;51.404;5.474;2023-06-22T05:38:45;16.27;;;10.50;;
45784;SDS011;31489;51.404;5.474;2023-06-22T05:41:11;12.68;;;10.73;;
45784;SDS011;31489;51.404;5.474;2023-06-22T05:43:37;11.50;;;10.00;;
45784;SDS011;31489;51.404;5.474;2023-06-22T05:46:03;14.90;;;11.00;;
45784;SDS011;31489;51.404;5.474;2023-06-22T05:48:29;12.15;;;10.70;;
45784;SDS011;31489;51.404;5.474;2023-06-22T05:50:55;14.65;;;10.65;;
45784;SDS011;31489;51.404;5.474;2023-06-22T05:53:21;16.00;;;10.80;;
45784;SDS011;31489;51.404;5.474;2023-06-22T05:55:47;13.00;;;10.27;;
45784;SDS011;31489;51.404;5.474;2023-06-22T05:58:12;11.35;;;9.82;;
45784;SDS011;31489;51.404;5.474;2023-06-22T06:00:38;11.05;;;9.77;;
45784;SDS011;31489;51.404;5.474;2023-06-22T06:03:05;13.13;;;10.27;;
45784;SDS011;31489;51.404;5.474;2023-06-22T06:05:32;11.68;;;9.60;;
45784;SDS011;31489;51.404;5.474;2023-06-22T06:07:59;11.57;;;10.38;;
45784;SDS011;31489;51.404;5.474;2023-06-22T06:10:26;13.00;;;10.27;;
45784;SDS011;31489;51.404;5.474;2023-06-22T06:12:52;14.75;;;11.35;;
45784;SDS011;31489;51.404;5.474;2023-06-22T06:15:21;12.00;;;10.07;;
45784;SDS011;31489;51.404;5.474;2023-06-22T06:17:50;16.35;;;10.95;;
45784;SDS011;31489;51.404;5.474;2023-06-22T06:20:18;14.68;;;11.57;;
45784;SDS011;31489;51.404;5.474;2023-06-22T06:22:44;12.23;;;10.40;;
45784;SDS011;31489;51.404;5.474;2023-06-22T06:25:10;13.38;;;9.98;;
45784;SDS011;31489;51.404;5.474;2023-06-22T06:27:41;12.52;;;11.10;;
45784;SDS011;31489;51.404;5.474;2023-06-22T06:30:14;13.88;;;10.18;;
45784;SDS011;31489;51.404;5.474;2023-06-22T06:32:40;11.75;;;9.88;;
45784;SDS011;31489;51.404;5.474;2023-06-22T06:35:07;13.23;;;10.57;;
45784;SDS011;31489;51.404;5.474;2023-06-22T06:37:35;13.55;;;10.45;;
45784;SDS011;31489;51.404;5.474;2023-06-22T06:40:03;14.15;;;9.50;;
45784;SDS011;31489;51.404;5.474;2023-06-22T06:42:31;13.45;;;10.30;;
45784;SDS011;31489;51.404;5.474;2023-06-22T06:44:59;12.02;;;9.70;;
45784;SDS011;31489;51.404;5.474;2023-06-22T06:47:25;11.35;;;9.93;;
45784;SDS011;31489;51.404;5.474;2023-06-22T06:49:50;13.75;;;10.60;;
45784;SDS011;31489;51.404;5.474;2023-06-22T06:52:16;13.25;;;10.82;;
45784;SDS011;31489;51.404;5.474;2023-06-22T06:54:41;13.73;;;10.60;;
45784;SDS011;31489;51.404;5.474;2023-06-22T06:57:07;12.23;;;10.48;;
45784;SDS011;31489;51.404;5.474;2023-06-22T06:59:35;13.60;;;10.98;;
45784;SDS011;31489;51.404;5.474;2023-06-22T07:02:01;17.55;;;11.48;;
45784;SDS011;31489;51.404;5.474;2023-06-22T07:04:27;14.50;;;11.20;;
45784;SDS011;31489;51.404;5.474;2023-06-22T07:06:52;17.05;;;11.25;;
45784;SDS011;31489;51.404;5.474;2023-06-22T07:09:18;13.38;;;11.95;;
45784;SDS011;31489;51.404;5.474;2023-06-22T07:11:43;13.13;;;11.45;;
45784;SDS011;31489;51.404;5.474;2023-06-22T07:14:12;12.13;;;10.82;;
45784;SDS011;31489;51.404;5.474;2023-06-22T07:16:37;16.77;;;11.23;;
45784;SDS011;31489;51.404;5.474;2023-06-22T07:19:03;11.75;;;10.55;;
45784;SDS011;31489;51.404;5.474;2023-06-22T07:21:29;12.90;;;10.32;;
45784;SDS011;31489;51.404;5.474;2023-06-22T07:23:54;11.80;;;10.18;;
45784;SDS011;31489;51.404;5.474;2023-06-22T07:26:20;11.40;;;9.98;;
45784;SDS011;31489;51.404;5.474;2023-06-22T07:28:46;10.35;;;9.13;;
45784;SDS011;31489;51.404;5.474;2023-06-22T07:31:11;13.63;;;10.10;;
45784;SDS011;31489;51.404;5.474;2023-06-22T07:33:37;13.93;;;11.15;;
45784;SDS011;31489;51.404;5.474;2023-06-22T07:36:03;12.48;;;10.23;;
45784;SDS011;31489;51.404;5.474;2023-06-22T07:38:32;12.98;;;10.38;;
45784;SDS011;31489;51.404;5.474;2023-06-22T07:40:58;13.15;;;10.82;;
45784;SDS011;31489;51.404;5.474;2023-06-22T07:43:24;13.73;;;10.02;;
45784;SDS011;31489;51.404;5.474;2023-06-22T07:45:50;14.45;;;10.70;;
45784;SDS011;31489;51.404;5.474;2023-06-22T07:48:22;13.32;;;10.20;;
45784;SDS011;31489;51.404;5.474;2023-06-22T07:50:48;10.13;;;9.00;;
45784;SDS011;31489;51.404;5.474;2023-06-22T07:53:14;12.07;;;9.05;;
45784;SDS011;31489;51.404;5.474;2023-06-22T07:55:40;9.85;;;8.77;;
45784;SDS011;31489;51.404;5.474;2023-06-22T07:58:06;9.77;;;8.45;;
45784;SDS011;31489;51.404;5.474;2023-06-22T08:00:32;13.45;;;8.48;;
45784;SDS011;31489;51.404;5.474;2023-06-22T08:02:59;11.70;;;8.60;;
45784;SDS011;31489;51.404;5.474;2023-06-22T08:05:24;10.05;;;7.90;;
45784;SDS011;31489;51.404;5.474;2023-06-22T08:07:50;10.38;;;8.75;;
45784;SDS011;31489;51.404;5.474;2023-06-22T08:10:16;11.32;;;9.48;;
45784;SDS011;31489;51.404;5.474;2023-06-22T08:12:42;12.25;;;9.50;;
45784;SDS011;31489;51.404;5.474;2023-06-22T08:15:08;13.82;;;9.55;;
45784;SDS011;31489;51.404;5.474;2023-06-22T08:17:36;11.23;;;8.98;;
45784;SDS011;31489;51.404;5.474;2023-06-22T08:20:02;10.45;;;8.93;;
45784;SDS011;31489;51.404;5.474;2023-06-22T08:22:34;12.82;;;8.82;;
45784;SDS011;31489;51.404;5.474;2023-06-22T08:25:01;10.93;;;8.70;;
45784;SDS011;31489;51.404;5.474;2023-06-22T08:27:28;12.75;;;9.25;;
45784;SDS011;31489;51.404;5.474;2023-06-22T08:29:56;10.73;;;9.63;;
45784;SDS011;31489;51.404;5.474;2023-06-22T08:32:24;10.65;;;9.60;;
45784;SDS011;31489;51.404;5.474;2023-06-22T08:34:51;11.18;;;9.02;;
45784;SDS011;31489;51.404;5.474;2023-06-22T08:37:18;11.68;;;10.48;;
45784;SDS011;31489;51.404;5.474;2023-06-22T08:39:44;13.18;;;10.57;;
45784;SDS011;31489;51.404;5.474;2023-06-22T08:42:10;10.77;;;9.52;;
45784;SDS011;31489;51.404;5.474;2023-06-22T08:44:35;11.45;;;10.35;;
45784;SDS011;31489;51.404;5.474;2023-06-22T08:47:03;12.98;;;10.45;;
45784;SDS011;31489;51.404;5.474;2023-06-22T08:49:29;11.93;;;9.90;;
45784;SDS011;31489;51.404;5.474;2023-06-22T08:51:55;11.70;;;10.05;;
45784;SDS011;31489;51.404;5.474;2023-06-22T08:54:21;11.15;;;10.00;;
45784;SDS011;31489;51.404;5.474;2023-06-22T08:56:48;12.38;;;9.75;;
45784;SDS011;31489;51.404;5.474;2023-06-22T08:59:13;15.88;;;10.70;;
45784;SDS011;31489;51.404;5.474;2023-06-22T09:01:39;12.90;;;10.25;;
45784;SDS011;31489;51.404;5.474;2023-06-22T09:04:05;12.00;;;10.23;;
45784;SDS011;31489;51.404;5.474;2023-06-22T09:06:32;11.98;;;9.73;;
45784;SDS011;31489;51.404;5.474;2023-06-22T09:08:58;16.02;;;9.50;;
45784;SDS011;31489;51.404;5.474;2023-06-22T09:11:27;10.98;;;9.68;;
45784;SDS011;31489;51.404;5.474;2023-06-22T09:13:52;10.27;;;8.65;;
45784;SDS011;31489;51.404;5.474;2023-06-22T09:16:18;12.15;;;10.10;;
45784;SDS011;31489;51.404;5.474;2023-06-22T09:18:47;11.85;;;10.55;;
45784;SDS011;31489;51.404;5.474;2023-06-22T09:21:13;10.35;;;9.02;;
45784;SDS011;31489;51.404;5.474;2023-06-22T09:23:39;10.52;;;9.07;;
45784;SDS011;31489;51.404;5.474;2023-06-22T09:26:05;10.88;;;9.77;;
45784;SDS011;31489;51.404;5.474;2023-06-22T09:28:30;17.45;;;11.38;;
45784;SDS011;31489;51.404;5.474;2023-06-22T09:30:56;11.80;;;9.52;;
45784;SDS011;31489;51.404;5.474;2023-06-22T09:33:25;10.52;;;9.52;;
45784;SDS011;31489;51.404;5.474;2023-06-22T09:35:51;10.93;;;9.82;;
45784;SDS011;31489;51.404;5.474;2023-06-22T09:38:17;11.35;;;10.00;;
45784;SDS011;31489;51.404;5.474;2023-06-22T09:40:42;12.68;;;10.10;;
45784;SDS011;31489;51.404;5.474;2023-06-22T09:43:08;11.63;;;9.57;;
45784;SDS011;31489;51.404;5.474;2023-06-22T09:45:34;14.73;;;9.77;;
45784;SDS011;31489;51.404;5.474;2023-06-22T09:47:59;10.07;;;9.07;;
45784;SDS011;31489;51.404;5.474;2023-06-22T09:50:25;10.68;;;9.65;;
45784;SDS011;31489;51.404;5.474;2023-06-22T09:52:51;12.80;;;10.18;;
45784;SDS011;31489;51.404;5.474;2023-06-22T09:55:20;16.92;;;10.07;;
45784;SDS011;31489;51.404;5.474;2023-06-22T09:57:46;16.48;;;9.80;;
45784;SDS011;31489;51.404;5.474;2023-06-22T10:00:12;15.13;;;10.35;;
45784;SDS011;31489;51.404;5.474;2023-06-22T10:02:39;9.98;;;8.85;;
45784;SDS011;31489;51.404;5.474;2023-06-22T10:05:06;10.70;;;9.57;;
45784;SDS011;31489;51.404;5.474;2023-06-22T10:07:32;15.75;;;9.48;;
45784;SDS011;31489;51.404;5.474;2023-06-22T10:09:58;14.10;;;10.52;;
45784;SDS011;31489;51.404;5.474;2023-06-22T10:12:24;11.07;;;9.15;;
45784;SDS011;31489;51.404;5.474;2023-06-22T10:14:50;13.65;;;10.18;;
45784;SDS011;31489;51.404;5.474;2023-06-22T10:17:16;9.63;;;8.63;;
45784;SDS011;31489;51.404;5.474;2023-06-22T10:19:41;14.00;;;9.82;;
45784;SDS011;31489;51.404;5.474;2023-06-22T10:22:07;15.18;;;10.25;;
45784;SDS011;31489;51.404;5.474;2023-06-22T10:24:33;12.15;;;9.27;;
45784;SDS011;31489;51.404;5.474;2023-06-22T10:26:58;11.13;;;9.45;;
45784;SDS011;31489;51.404;5.474;2023-06-22T10:29:24;14.15;;;11.30;;
45784;SDS011;31489;51.404;5.474;2023-06-22T10:31:49;12.23;;;10.35;;
45784;SDS011;31489;51.404;5.474;2023-06-22T10:34:15;12.00;;;10.15;;
45784;SDS011;31489;51.404;5.474;2023-06-22T10:36:41;15.35;;;11.35;;
45784;SDS011;31489;51.404;5.474;2023-06-22T10:39:06;12.93;;;10.73;;
45784;SDS011;31489;51.404;5.474;2023-06-22T10:41:32;12.45;;;10.57;;
45784;SDS011;31489;51.404;5.474;2023-06-22T10:43:58;14.73;;;10.70;;
45784;SDS011;31489;51.404;5.474;2023-06-22T10:46:24;15.38;;;10.30;;
45784;SDS011;31489;51.404;5.474;2023-06-22T10:48:50;14.13;;;11.35;;
45784;SDS011;31489;51.404;5.474;2023-06-22T10:51:19;18.55;;;11.25;;
45784;SDS011;31489;51.404;5.474;2023-06-22T10:53:45;13.27;;;11.68;;
45784;SDS011;31489;51.404;5.474;2023-06-22T10:56:10;12.60;;;11.23;;
45784;SDS011;31489;51.404;5.474;2023-06-22T10:58:38;18.58;;;12.68;;
45784;SDS011;31489;51.404;5.474;2023-06-22T11:01:04;13.70;;;11.60;;
45784;SDS011;31489;51.404;5.474;2023-06-22T11:03:30;14.23;;;12.57;;
45784;SDS011;31489;51.404;5.474;2023-06-22T11:05:55;13.95;;;12.35;;
45784;SDS011;31489;51.404;5.474;2023-06-22T11:08:21;17.70;;;12.88;;
45784;SDS011;31489;51.404;5.474;2023-06-22T11:10:46;15.30;;;12.75;;
45784;SDS011;31489;51.404;5.474;2023-06-22T11:13:12;17.52;;;13.18;;
45784;SDS011;31489;51.404;5.474;2023-06-22T11:15:40;16.77;;;12.98;;
45784;SDS011;31489;51.404;5.474;2023-06-22T11:18:08;15.90;;;12.70;;
45784;SDS011;31489;51.404;5.474;2023-06-22T11:20:34;17.90;;;11.95;;
45784;SDS011;31489;51.404;5.474;2023-06-22T11:23:03;15.77;;;12.35;;
45784;SDS011;31489;51.404;5.474;2023-06-22T11:25:31;17.00;;;13.05;;
45784;SDS011;31489;51.404;5.474;2023-06-22T11:27:57;22.92;;;13.90;;
45784;SDS011;31489;51.404;5.474;2023-06-22T11:30:22;23.52;;;13.07;;
45784;SDS011;31489;51.404;5.474;2023-06-22T11:32:48;18.60;;;12.80;;
45784;SDS011;31489;51.404;5.474;2023-06-22T11:35:14;16.27;;;12.23;;
45784;SDS011;31489;51.404;5.474;2023-06-22T11:37:39;19.70;;;12.93;;
45784;SDS011;31489;51.404;5.474;2023-06-22T11:40:05;14.77;;;12.65;;
45784;SDS011;31489;51.404;5.474;2023-06-22T11:42:34;22.80;;;14.55;;
45784;SDS011;31489;51.404;5.474;2023-06-22T11:44:59;21.42;;;12.90;;
45784;SDS011;31489;51.404;5.474;2023-06-22T11:47:25;15.05;;;12.90;;
45784;SDS011;31489;51.404;5.474;2023-06-22T11:49:51;16.08;;;12.80;;
45784;SDS011;31489;51.404;5.474;2023-06-22T11:52:16;16.15;;;13.27;;
45784;SDS011;31489;51.404;5.474;2023-06-22T11:54:43;14.88;;;13.13;;
45784;SDS011;31489;51.404;5.474;2023-06-22T11:57:08;17.08;;;13.38;;
45784;SDS011;31489;51.404;5.474;2023-06-22T11:59:34;16.52;;;14.20;;
45784;SDS011;31489;51.404;5.474;2023-06-22T12:02:00;15.55;;;12.98;;
45784;SDS011;31489;51.404;5.474;2023-06-22T12:04:25;21.67;;;13.20;;
45784;SDS011;31489;51.404;5.474;2023-06-22T12:06:51;17.65;;;14.05;;
45784;SDS011;31489;51.404;5.474;2023-06-22T12:09:17;14.27;;;12.88;;
45784;SDS011;31489;51.404;5.474;2023-06-22T12:11:42;14.55;;;13.02;;
45784;SDS011;31489;51.404;5.474;2023-06-22T12:14:08;16.30;;;13.98;;
45784;SDS011;31489;51.404;5.474;2023-06-22T12:16:34;14.93;;;13.10;;
45784;SDS011;31489;51.404;5.474;2023-06-22T12:19:00;13.52;;;12.13;;
45784;SDS011;31489;51.404;5.474;2023-06-22T12:21:25;15.25;;;13.32;;
45784;SDS011;31489;51.404;5.474;2023-06-22T12:23:51;15.23;;;13.73;;
45784;SDS011;31489;51.404;5.474;2023-06-22T12:26:16;12.45;;;11.15;;
45784;SDS011;31489;51.404;5.474;2023-06-22T12:28:42;13.52;;;12.13;;
45784;SDS011;31489;51.404;5.474;2023-06-22T12:31:08;15.55;;;13.90;;
45784;SDS011;31489;51.404;5.474;2023-06-22T12:33:33;15.40;;;13.90;;
45784;SDS011;31489;51.404;5.474;2023-06-22T12:35:59;14.70;;;13.15;;
45784;SDS011;31489;51.404;5.474;2023-06-22T12:38:24;13.52;;;12.23;;
45784;SDS011;31489;51.404;5.474;2023-06-22T12:40:51;14.38;;;12.90;;
45784;SDS011;31489;51.404;5.474;2023-06-22T12:43:17;14.05;;;12.63;;
45784;SDS011;31489;51.404;5.474;2023-06-22T12:45:43;13.48;;;12.10;;
45784;SDS011;31489;51.404;5.474;2023-06-22T12:48:08;13.70;;;12.30;;
45784;SDS011;31489;51.404;5.474;2023-06-22T12:50:34;15.38;;;12.15;;
45784;SDS011;31489;51.404;5.474;2023-06-22T12:53:00;12.95;;;11.60;;
45784;SDS011;31489;51.404;5.474;2023-06-22T12:55:27;14.63;;;12.75;;
45784;SDS011;31489;51.404;5.474;2023-06-22T12:57:53;14.52;;;12.95;;
45784;SDS011;31489;51.404;5.474;2023-06-22T13:00:18;13.73;;;12.25;;
45784;SDS011;31489;51.404;5.474;2023-06-22T13:02:44;13.20;;;11.85;;
45784;SDS011;31489;51.404;5.474;2023-06-22T13:05:10;13.73;;;12.25;;
45784;SDS011;31489;51.404;5.474;2023-06-22T13:07:39;11.68;;;10.48;;
45784;SDS011;31489;51.404;5.474;2023-06-22T13:10:04;13.90;;;12.40;;
45784;SDS011;31489;51.404;5.474;2023-06-22T13:12:30;15.93;;;10.90;;
45784;SDS011;31489;51.404;5.474;2023-06-22T13:14:56;12.75;;;11.45;;
45784;SDS011;31489;51.404;5.474;2023-06-22T13:17:22;12.63;;;10.52;;
45784;SDS011;31489;51.404;5.474;2023-06-22T13:19:47;11.43;;;10.43;;
45784;SDS011;31489;51.404;5.474;2023-06-22T13:22:25;11.98;;;10.82;;
45784;SDS011;31489;51.404;5.474;2023-06-22T13:24:59;12.85;;;9.88;;
45784;SDS011;31489;51.404;5.474;2023-06-22T13:27:25;11.23;;;10.13;;
45784;SDS011;31489;51.404;5.474;2023-06-22T13:29:51;11.00;;;9.93;;
45784;SDS011;31489;51.404;5.474;2023-06-22T13:32:17;11.98;;;10.57;;
45784;SDS011;31489;51.404;5.474;2023-06-22T13:34:43;12.43;;;11.27;;
45784;SDS011;31489;51.404;5.474;2023-06-22T13:37:09;12.88;;;10.95;;
45784;SDS011;31489;51.404;5.474;2023-06-22T13:39:34;11.68;;;10.30;;
45784;SDS011;31489;51.404;5.474;2023-06-22T13:42:00;13.02;;;9.30;;
45784;SDS011;31489;51.404;5.474;2023-06-22T13:44:26;11.07;;;9.95;;
45784;SDS011;31489;51.404;5.474;2023-06-22T13:46:54;11.10;;;9.18;;
45784;SDS011;31489;51.404;5.474;2023-06-22T13:49:20;13.23;;;10.13;;
45784;SDS011;31489;51.404;5.474;2023-06-22T13:51:46;12.32;;;9.30;;
45784;SDS011;31489;51.404;5.474;2023-06-22T13:54:13;10.60;;;9.50;;
45784;SDS011;31489;51.404;5.474;2023-06-22T13:56:39;11.25;;;9.55;;
45784;SDS011;31489;51.404;5.474;2023-06-22T13:59:04;11.05;;;9.15;;
45784;SDS011;31489;51.404;5.474;2023-06-22T14:01:31;10.35;;;9.07;;
45784;SDS011;31489;51.404;5.474;2023-06-22T14:03:57;10.20;;;8.13;;
45784;SDS011;31489;51.404;5.474;2023-06-22T14:06:23;10.43;;;9.27;;
45784;SDS011;31489;51.404;5.474;2023-06-22T14:08:48;9.88;;;8.70;;
45784;SDS011;31489;51.404;5.474;2023-06-22T14:11:15;13.07;;;9.13;;
45784;SDS011;31489;51.404;5.474;2023-06-22T14:13:41;9.88;;;8.93;;
45784;SDS011;31489;51.404;5.474;2023-06-22T14:16:08;17.08;;;9.13;;
45784;SDS011;31489;51.404;5.474;2023-06-22T14:18:33;10.70;;;9.38;;
45784;SDS011;31489;51.404;5.474;2023-06-22T14:20:59;11.02;;;9.35;;
45784;SDS011;31489;51.404;5.474;2023-06-22T14:23:25;10.25;;;9.25;;
45784;SDS011;31489;51.404;5.474;2023-06-22T14:25:50;11.82;;;10.35;;
45784;SDS011;31489;51.404;5.474;2023-06-22T14:28:16;11.82;;;9.30;;
45784;SDS011;31489;51.404;5.474;2023-06-22T14:30:43;11.57;;;10.20;;
45784;SDS011;31489;51.404;5.474;2023-06-22T14:33:08;10.05;;;9.05;;
45784;SDS011;31489;51.404;5.474;2023-06-22T14:35:34;9.48;;;8.55;;
45784;SDS011;31489;51.404;5.474;2023-06-22T14:37:59;14.40;;;10.15;;